sensor_id;sensor_type;location;lat;lon;timestamp;pressure;altitude;pressure_sealevel;temperature;humidity
68889;BME280;55930;47.412;8.790;2023-11-19T00:03:03;94923.94;;;5.23;100.00
68889;BME280;55930;47.412;8.790;2023-11-19T00:06:24;94923.69;;;5.33;100.00
68889;BME280;55930;47.412;8.790;2023-11-19T00:09:45;94918.97;;;5.41;100.00
68889;BME280;55930;47.412;8.790;2023-11-19T00:13:05;94932.03;;;5.45;100.00
68889;BME280;55930;47.412;8.790;2023-11-19T00:16:27;94918.78;;;5.48;100.00
68889;BME280;55930;47.412;8.790;2023-11-19T00:19:48;94896.50;;;5.53;100.00
68889;BME280;55930;47.412;8.790;2023-11-19T00:23:11;94879.75;;;5.59;100.00
68889;BME280;55930;47.412;8.790;2023-11-19T00:26:31;94880.31;;;5.67;100.00
68889;BME280;55930;47.412;8.790;2023-11-19T00:29:52;94881.59;;;5.75;100.00
68889;BME280;55930;47.412;8.790;2023-11-19T00:33:12;94881.81;;;5.81;100.00
68889;BME280;55930;47.412;8.790;2023-11-19T00:36:33;94871.19;;;5.84;100.00
68889;BME280;55930;47.412;8.790;2023-11-19T00:39:53;94869.56;;;5.90;100.00
68889;BME280;55930;47.412;8.790;2023-11-19T00:43:13;94884.69;;;5.99;100.00
68889;BME280;55930;47.412;8.790;2023-11-19T00:46:34;94864.69;;;6.01;100.00
68889;BME280;55930;47.412;8.790;2023-11-19T00:49:54;94875.75;;;6.09;100.00
68889;BME280;55930;47.412;8.790;2023-11-19T00:53:15;94868.94;;;6.11;100.00
68889;BME280;55930;47.412;8.790;2023-11-19T00:56:35;94861.56;;;6.19;100.00
68889;BME280;55930;47.412;8.790;2023-11-19T00:59:57;94867.88;;;6.34;100.00
68889;BME280;55930;47.412;8.790;2023-11-19T01:03:20;94863.66;;;6.37;100.00
68889;BME280;55930;47.412;8.790;2023-11-19T01:06:43;94876.47;;;6.47;100.00
68889;BME280;55930;47.412;8.790;2023-11-19T01:10:04;94870.38;;;6.50;100.00
68889;BME280;55930;47.412;8.790;2023-11-19T01:13:24;94866.25;;;6.49;100.00
68889;BME280;55930;47.412;8.790;2023-11-19T01:16:45;94851.38;;;6.56;100.00
68889;BME280;55930;47.412;8.790;2023-11-19T01:20:06;94851.78;;;6.67;100.00
68889;BME280;55930;47.412;8.790;2023-11-19T01:23:29;94861.28;;;6.77;100.00
68889;BME280;55930;47.412;8.790;2023-11-19T01:26:49;94849.94;;;6.89;100.00
68889;BME280;55930;47.412;8.790;2023-11-19T01:30:10;94847.06;;;6.96;100.00
68889;BME280;55930;47.412;8.790;2023-11-19T01:33:33;94841.13;;;7.05;100.00
68889;BME280;55930;47.412;8.790;2023-11-19T01:36:53;94844.25;;;7.12;100.00
68889;BME280;55930;47.412;8.790;2023-11-19T01:40:14;94830.91;;;7.28;100.00
68889;BME280;55930;47.412;8.790;2023-11-19T01:43:36;94840.28;;;7.29;100.00
68889;BME280;55930;47.412;8.790;2023-11-19T01:46:57;94833.03;;;7.43;100.00
68889;BME280;55930;47.412;8.790;2023-11-19T01:50:20;94838.31;;;7.43;100.00
68889;BME280;55930;47.412;8.790;2023-11-19T01:53:47;94830.88;;;7.50;100.00
68889;BME280;55930;47.412;8.790;2023-11-19T01:57:08;94835.13;;;7.48;100.00
68889;BME280;55930;47.412;8.790;2023-11-19T02:00:30;94818.09;;;7.71;100.00
68889;BME280;55930;47.412;8.790;2023-11-19T02:03:54;94819.88;;;7.74;100.00
68889;BME280;55930;47.412;8.790;2023-11-19T02:07:15;94822.53;;;7.74;100.00
68889;BME280;55930;47.412;8.790;2023-11-19T02:10:37;94819.91;;;7.83;100.00
68889;BME280;55930;47.412;8.790;2023-11-19T02:13:57;94816.84;;;7.84;100.00
68889;BME280;55930;47.412;8.790;2023-11-19T02:17:28;94811.97;;;7.83;100.00
68889;BME280;55930;47.412;8.790;2023-11-19T02:20:51;94804.53;;;7.81;100.00
68889;BME280;55930;47.412;8.790;2023-11-19T02:24:14;94800.25;;;7.84;100.00
68889;BME280;55930;47.412;8.790;2023-11-19T02:31:08;94789.13;;;7.89;100.00
68889;BME280;55930;47.412;8.790;2023-11-19T02:34:29;94773.09;;;7.83;100.00
68889;BME280;55930;47.412;8.790;2023-11-19T02:37:50;94775.47;;;7.81;100.00
68889;BME280;55930;47.412;8.790;2023-11-19T02:41:10;94789.53;;;7.78;100.00
68889;BME280;55930;47.412;8.790;2023-11-19T02:44:30;94771.03;;;7.78;100.00
68889;BME280;55930;47.412;8.790;2023-11-19T02:47:54;94772.38;;;7.83;100.00
68889;BME280;55930;47.412;8.790;2023-11-19T02:51:17;94775.75;;;7.83;100.00
68889;BME280;55930;47.412;8.790;2023-11-19T02:54:38;94782.53;;;7.93;100.00
68889;BME280;55930;47.412;8.790;2023-11-19T02:57:59;94792.69;;;7.95;100.00
68889;BME280;55930;47.412;8.790;2023-11-19T03:01:24;94815.13;;;7.99;100.00
68889;BME280;55930;47.412;8.790;2023-11-19T03:04:49;94816.06;;;8.05;100.00
68889;BME280;55930;47.412;8.790;2023-11-19T03:08:10;94800.66;;;8.13;100.00
68889;BME280;55930;47.412;8.790;2023-11-19T03:11:32;94801.22;;;8.08;100.00
68889;BME280;55930;47.412;8.790;2023-11-19T03:14:54;94799.59;;;8.01;100.00
68889;BME280;55930;47.412;8.790;2023-11-19T03:18:15;94793.00;;;7.97;100.00
68889;BME280;55930;47.412;8.790;2023-11-19T03:21:35;94793.53;;;7.92;100.00
68889;BME280;55930;47.412;8.790;2023-11-19T03:24:56;94790.03;;;7.95;100.00
68889;BME280;55930;47.412;8.790;2023-11-19T03:28:19;94797.81;;;7.98;100.00
68889;BME280;55930;47.412;8.790;2023-11-19T03:31:42;94809.00;;;8.02;100.00
68889;BME280;55930;47.412;8.790;2023-11-19T03:35:04;94796.53;;;8.03;100.00
68889;BME280;55930;47.412;8.790;2023-11-19T03:38:27;94798.84;;;8.01;100.00
68889;BME280;55930;47.412;8.790;2023-11-19T03:41:47;94798.13;;;8.00;100.00
68889;BME280;55930;47.412;8.790;2023-11-19T03:45:08;94792.72;;;8.04;100.00
68889;BME280;55930;47.412;8.790;2023-11-19T03:48:32;94795.34;;;8.04;100.00
68889;BME280;55930;47.412;8.790;2023-11-19T03:51:52;94808.25;;;8.02;100.00
68889;BME280;55930;47.412;8.790;2023-11-19T03:55:12;94812.38;;;8.03;100.00
68889;BME280;55930;47.412;8.790;2023-11-19T03:58:33;94805.50;;;8.05;100.00
68889;BME280;55930;47.412;8.790;2023-11-19T04:01:54;94799.47;;;8.05;100.00
68889;BME280;55930;47.412;8.790;2023-11-19T04:05:18;94801.38;;;8.04;100.00
68889;BME280;55930;47.412;8.790;2023-11-19T04:08:39;94815.31;;;8.05;100.00
68889;BME280;55930;47.412;8.790;2023-11-19T04:12:00;94813.56;;;8.11;100.00
68889;BME280;55930;47.412;8.790;2023-11-19T04:15:20;94824.44;;;8.13;100.00
68889;BME280;55930;47.412;8.790;2023-11-19T04:18:41;94832.19;;;8.07;100.00
68889;BME280;55930;47.412;8.790;2023-11-19T04:22:01;94830.59;;;8.10;100.00
68889;BME280;55930;47.412;8.790;2023-11-19T04:25:22;94836.00;;;8.06;100.00
68889;BME280;55930;47.412;8.790;2023-11-19T04:28:42;94840.44;;;8.10;100.00
68889;BME280;55930;47.412;8.790;2023-11-19T04:32:03;94838.09;;;8.12;100.00
68889;BME280;55930;47.412;8.790;2023-11-19T04:35:23;94847.94;;;8.11;100.00
68889;BME280;55930;47.412;8.790;2023-11-19T04:38:45;94844.53;;;8.11;100.00
68889;BME280;55930;47.412;8.790;2023-11-19T04:42:08;94836.03;;;8.16;100.00
68889;BME280;55930;47.412;8.790;2023-11-19T04:45:29;94835.66;;;8.26;100.00
68889;BME280;55930;47.412;8.790;2023-11-19T04:48:49;94833.00;;;8.26;100.00
68889;BME280;55930;47.412;8.790;2023-11-19T04:52:11;94841.78;;;8.23;100.00
68889;BME280;55930;47.412;8.790;2023-11-19T04:55:32;94850.75;;;8.26;100.00
68889;BME280;55930;47.412;8.790;2023-11-19T04:58:52;94847.69;;;8.27;100.00
68889;BME280;55930;47.412;8.790;2023-11-19T05:02:13;94845.78;;;8.28;100.00
68889;BME280;55930;47.412;8.790;2023-11-19T05:05:33;94853.47;;;8.35;100.00
68889;BME280;55930;47.412;8.790;2023-11-19T05:08:54;94848.63;;;8.33;100.00
68889;BME280;55930;47.412;8.790;2023-11-19T05:12:15;94845.84;;;8.37;100.00
68889;BME280;55930;47.412;8.790;2023-11-19T05:15:37;94845.56;;;8.44;100.00
68889;BME280;55930;47.412;8.790;2023-11-19T05:18:58;94849.84;;;8.51;100.00
68889;BME280;55930;47.412;8.790;2023-11-19T05:22:18;94846.16;;;8.48;100.00
68889;BME280;55930;47.412;8.790;2023-11-19T05:25:42;94846.47;;;8.50;100.00
68889;BME280;55930;47.412;8.790;2023-11-19T05:29:02;94858.09;;;8.62;100.00
68889;BME280;55930;47.412;8.790;2023-11-19T05:32:23;94864.97;;;8.50;100.00
68889;BME280;55930;47.412;8.790;2023-11-19T05:35:46;94869.38;;;8.53;100.00
68889;BME280;55930;47.412;8.790;2023-11-19T05:39:06;94864.69;;;8.57;100.00
68889;BME280;55930;47.412;8.790;2023-11-19T05:42:26;94863.09;;;8.60;100.00
68889;BME280;55930;47.412;8.790;2023-11-19T05:45:47;94870.31;;;8.68;100.00
68889;BME280;55930;47.412;8.790;2023-11-19T05:49:10;94863.53;;;8.67;100.00
68889;BME280;55930;47.412;8.790;2023-11-19T05:52:31;94871.03;;;8.60;100.00
68889;BME280;55930;47.412;8.790;2023-11-19T05:55:53;94857.38;;;8.61;100.00
68889;BME280;55930;47.412;8.790;2023-11-19T05:59:16;94862.81;;;8.67;100.00
68889;BME280;55930;47.412;8.790;2023-11-19T06:02:38;94851.50;;;8.66;100.00
68889;BME280;55930;47.412;8.790;2023-11-19T06:05:58;94852.81;;;8.71;100.00
68889;BME280;55930;47.412;8.790;2023-11-19T06:09:19;94849.16;;;8.68;100.00
68889;BME280;55930;47.412;8.790;2023-11-19T06:12:39;94845.59;;;8.62;100.00
68889;BME280;55930;47.412;8.790;2023-11-19T06:16:01;94851.19;;;8.64;100.00
68889;BME280;55930;47.412;8.790;2023-11-19T06:19:23;94850.16;;;8.62;100.00
68889;BME280;55930;47.412;8.790;2023-11-19T06:22:45;94857.81;;;8.69;100.00
68889;BME280;55930;47.412;8.790;2023-11-19T06:26:06;94851.63;;;8.63;100.00
68889;BME280;55930;47.412;8.790;2023-11-19T06:29:26;94852.34;;;8.63;100.00
68889;BME280;55930;47.412;8.790;2023-11-19T06:32:46;94851.19;;;8.64;100.00
68889;BME280;55930;47.412;8.790;2023-11-19T06:36:07;94858.38;;;8.64;100.00
68889;BME280;55930;47.412;8.790;2023-11-19T06:39:29;94859.13;;;8.64;100.00
68889;BME280;55930;47.412;8.790;2023-11-19T06:42:49;94858.84;;;8.71;100.00
68889;BME280;55930;47.412;8.790;2023-11-19T06:46:16;94858.09;;;8.71;100.00
68889;BME280;55930;47.412;8.790;2023-11-19T06:49:36;94861.94;;;8.70;100.00
68889;BME280;55930;47.412;8.790;2023-11-19T06:52:57;94859.88;;;8.74;100.00
68889;BME280;55930;47.412;8.790;2023-11-19T06:56:24;94863.56;;;8.76;100.00
68889;BME280;55930;47.412;8.790;2023-11-19T06:59:44;94857.53;;;8.76;100.00
68889;BME280;55930;47.412;8.790;2023-11-19T07:03:05;94870.03;;;8.75;100.00
68889;BME280;55930;47.412;8.790;2023-11-19T07:06:28;94870.59;;;8.79;100.00
68889;BME280;55930;47.412;8.790;2023-11-19T07:09:49;94871.22;;;8.83;100.00
68889;BME280;55930;47.412;8.790;2023-11-19T07:13:10;94868.56;;;8.83;100.00
68889;BME280;55930;47.412;8.790;2023-11-19T07:16:30;94866.06;;;8.89;100.00
68889;BME280;55930;47.412;8.790;2023-11-19T07:19:51;94867.09;;;8.92;100.00
68889;BME280;55930;47.412;8.790;2023-11-19T07:23:11;94865.03;;;8.96;100.00
68889;BME280;55930;47.412;8.790;2023-11-19T07:26:32;94867.56;;;8.99;100.00
68889;BME280;55930;47.412;8.790;2023-11-19T07:29:53;94865.06;;;9.05;100.00
68889;BME280;55930;47.412;8.790;2023-11-19T07:33:18;94868.59;;;9.02;100.00
68889;BME280;55930;47.412;8.790;2023-11-19T07:36:38;94879.91;;;9.11;100.00
68889;BME280;55930;47.412;8.790;2023-11-19T07:39:59;94877.56;;;9.13;100.00
68889;BME280;55930;47.412;8.790;2023-11-19T07:43:19;94890.50;;;9.20;100.00
68889;BME280;55930;47.412;8.790;2023-11-19T07:46:39;94879.34;;;9.26;100.00
68889;BME280;55930;47.412;8.790;2023-11-19T07:50:02;94884.91;;;9.28;100.00
68889;BME280;55930;47.412;8.790;2023-11-19T07:53:28;94885.50;;;9.32;100.00
68889;BME280;55930;47.412;8.790;2023-11-19T07:56:49;94885.94;;;9.39;100.00
68889;BME280;55930;47.412;8.790;2023-11-19T08:00:11;94886.09;;;9.45;100.00
68889;BME280;55930;47.412;8.790;2023-11-19T08:03:34;94882.69;;;9.44;100.00
68889;BME280;55930;47.412;8.790;2023-11-19T08:06:54;94884.16;;;9.45;100.00
68889;BME280;55930;47.412;8.790;2023-11-19T08:10:15;94887.56;;;9.55;100.00
68889;BME280;55930;47.412;8.790;2023-11-19T08:13:35;94881.66;;;9.51;100.00
68889;BME280;55930;47.412;8.790;2023-11-19T08:16:56;94880.34;;;9.55;100.00
68889;BME280;55930;47.412;8.790;2023-11-19T08:20:17;94885.47;;;9.59;100.00
68889;BME280;55930;47.412;8.790;2023-11-19T08:23:37;94877.53;;;9.59;100.00
68889;BME280;55930;47.412;8.790;2023-11-19T08:26:58;94883.28;;;9.57;100.00
68889;BME280;55930;47.412;8.790;2023-11-19T08:30:18;94885.03;;;9.60;100.00
68889;BME280;55930;47.412;8.790;2023-11-19T08:33:39;94884.91;;;9.55;100.00
68889;BME280;55930;47.412;8.790;2023-11-19T08:36:59;94894.31;;;9.56;100.00
68889;BME280;55930;47.412;8.790;2023-11-19T08:40:20;94897.41;;;9.64;100.00
68889;BME280;55930;47.412;8.790;2023-11-19T08:43:40;94897.41;;;9.64;100.00
68889;BME280;55930;47.412;8.790;2023-11-19T08:47:01;94905.47;;;9.69;100.00
68889;BME280;55930;47.412;8.790;2023-11-19T08:50:22;94900.19;;;9.60;100.00
68889;BME280;55930;47.412;8.790;2023-11-19T08:53:42;94905.47;;;9.69;100.00
68889;BME280;55930;47.412;8.790;2023-11-19T08:57:03;94898.84;;;9.74;100.00
68889;BME280;55930;47.412;8.790;2023-11-19T09:00:25;94905.34;;;9.73;100.00
68889;BME280;55930;47.412;8.790;2023-11-19T09:03:45;94918.84;;;9.84;100.00
68889;BME280;55930;47.412;8.790;2023-11-19T09:07:06;94921.38;;;9.87;100.00
68889;BME280;55930;47.412;8.790;2023-11-19T09:10:27;94913.56;;;9.75;100.00
68889;BME280;55930;47.412;8.790;2023-11-19T09:13:49;94912.38;;;9.76;100.00
68889;BME280;55930;47.412;8.790;2023-11-19T09:17:12;94921.81;;;9.77;100.00
68889;BME280;55930;47.412;8.790;2023-11-19T09:20:32;94918.88;;;9.75;100.00
68889;BME280;55930;47.412;8.790;2023-11-19T09:23:58;94925.63;;;9.76;100.00
68889;BME280;55930;47.412;8.790;2023-11-19T09:27:18;94916.50;;;9.77;100.00
68889;BME280;55930;47.412;8.790;2023-11-19T09:30:39;94910.16;;;9.83;100.00
68889;BME280;55930;47.412;8.790;2023-11-19T09:34:01;94919.88;;;10.05;100.00
68889;BME280;55930;47.412;8.790;2023-11-19T09:37:22;94918.19;;;10.16;100.00
68889;BME280;55930;47.412;8.790;2023-11-19T09:40:42;94921.03;;;10.04;100.00
68889;BME280;55930;47.412;8.790;2023-11-19T09:44:03;94915.59;;;9.98;100.00
68889;BME280;55930;47.412;8.790;2023-11-19T09:47:25;94920.19;;;9.97;100.00
68889;BME280;55930;47.412;8.790;2023-11-19T09:50:48;94920.75;;;10.02;100.00
68889;BME280;55930;47.412;8.790;2023-11-19T09:54:09;94912.22;;;9.97;100.00
68889;BME280;55930;47.412;8.790;2023-11-19T09:57:31;94918.38;;;10.04;100.00
68889;BME280;55930;47.412;8.790;2023-11-19T10:00:52;94915.25;;;10.14;100.00
68889;BME280;55930;47.412;8.790;2023-11-19T10:04:15;94903.34;;;10.19;100.00
68889;BME280;55930;47.412;8.790;2023-11-19T10:07:36;94901.97;;;10.32;100.00
68889;BME280;55930;47.412;8.790;2023-11-19T10:10:56;94895.28;;;10.46;100.00
68889;BME280;55930;47.412;8.790;2023-11-19T10:14:22;94885.72;;;10.40;100.00
68889;BME280;55930;47.412;8.790;2023-11-19T10:17:45;94895.75;;;10.45;100.00
68889;BME280;55930;47.412;8.790;2023-11-19T10:21:06;94900.22;;;10.62;100.00
68889;BME280;55930;47.412;8.790;2023-11-19T10:24:33;94898.59;;;10.65;100.00
68889;BME280;55930;47.412;8.790;2023-11-19T10:27:55;94900.06;;;10.66;100.00
68889;BME280;55930;47.412;8.790;2023-11-19T10:31:17;94897.97;;;10.70;100.00
68889;BME280;55930;47.412;8.790;2023-11-19T10:34:38;94889.34;;;10.60;100.00
68889;BME280;55930;47.412;8.790;2023-11-19T10:38:01;94892.66;;;10.70;100.00
68889;BME280;55930;47.412;8.790;2023-11-19T10:41:32;94882.34;;;10.72;100.00
68889;BME280;55930;47.412;8.790;2023-11-19T10:44:52;94882.44;;;10.78;100.00
68889;BME280;55930;47.412;8.790;2023-11-19T10:48:13;94877.44;;;10.80;100.00
68889;BME280;55930;47.412;8.790;2023-11-19T10:51:33;94868.78;;;10.94;100.00
68889;BME280;55930;47.412;8.790;2023-11-19T10:54:56;94875.34;;;10.84;100.00
68889;BME280;55930;47.412;8.790;2023-11-19T10:58:20;94889.13;;;10.73;100.00
68889;BME280;55930;47.412;8.790;2023-11-19T11:01:45;94874.22;;;10.76;100.00
68889;BME280;55930;47.412;8.790;2023-11-19T11:05:08;94883.25;;;10.69;100.00
68889;BME280;55930;47.412;8.790;2023-11-19T11:08:30;94882.28;;;10.57;100.00
68889;BME280;55930;47.412;8.790;2023-11-19T11:11:53;94873.97;;;10.64;100.00
68889;BME280;55930;47.412;8.790;2023-11-19T11:15:14;94867.19;;;10.63;100.00
68889;BME280;55930;47.412;8.790;2023-11-19T11:18:35;94868.53;;;10.68;100.00
68889;BME280;55930;47.412;8.790;2023-11-19T11:21:57;94867.72;;;10.77;100.00
68889;BME280;55930;47.412;8.790;2023-11-19T11:29:10;94870.72;;;10.93;100.00
68889;BME280;55930;47.412;8.790;2023-11-19T11:32:41;94862.56;;;10.97;100.00
68889;BME280;55930;47.412;8.790;2023-11-19T11:36:19;94857.22;;;10.82;100.00
68889;BME280;55930;47.412;8.790;2023-11-19T11:39:41;94863.22;;;10.92;100.00
68889;BME280;55930;47.412;8.790;2023-11-19T11:43:02;94858.63;;;10.92;100.00
68889;BME280;55930;47.412;8.790;2023-11-19T11:49:53;94841.34;;;11.50;100.00
68889;BME280;55930;47.412;8.790;2023-11-19T11:53:16;94839.72;;;11.82;100.00
68889;BME280;55930;47.412;8.790;2023-11-19T11:56:37;94836.31;;;11.52;100.00
68889;BME280;55930;47.412;8.790;2023-11-19T11:59:58;94829.97;;;11.35;100.00
68889;BME280;55930;47.412;8.790;2023-11-19T12:03:22;94828.03;;;11.21;100.00
68889;BME280;55930;47.412;8.790;2023-11-19T12:07:03;94834.34;;;11.08;100.00
68889;BME280;55930;47.412;8.790;2023-11-19T12:10:29;94824.56;;;11.15;100.00
68889;BME280;55930;47.412;8.790;2023-11-19T12:13:56;94829.69;;;10.94;100.00
68889;BME280;55930;47.412;8.790;2023-11-19T12:17:49;94821.41;;;11.01;100.00
68889;BME280;55930;47.412;8.790;2023-11-19T12:21:09;94819.16;;;11.09;100.00
68889;BME280;55930;47.412;8.790;2023-11-19T12:24:33;94829.75;;;11.09;100.00
68889;BME280;55930;47.412;8.790;2023-11-19T12:27:54;94820.44;;;11.13;100.00
68889;BME280;55930;47.412;8.790;2023-11-19T12:31:15;94826.81;;;11.07;100.00
68889;BME280;55930;47.412;8.790;2023-11-19T12:34:35;94822.31;;;10.98;100.00
68889;BME280;55930;47.412;8.790;2023-11-19T12:37:56;94824.84;;;11.17;100.00
68889;BME280;55930;47.412;8.790;2023-11-19T12:41:16;94816.72;;;10.96;100.00
68889;BME280;55930;47.412;8.790;2023-11-19T12:44:54;94818.44;;;10.85;100.00
68889;BME280;55930;47.412;8.790;2023-11-19T12:48:14;94825.66;;;10.84;100.00
68889;BME280;55930;47.412;8.790;2023-11-19T12:51:34;94823.13;;;10.90;100.00
68889;BME280;55930;47.412;8.790;2023-11-19T12:54:55;94816.53;;;10.85;100.00
68889;BME280;55930;47.412;8.790;2023-11-19T12:58:32;94812.06;;;10.91;100.00
68889;BME280;55930;47.412;8.790;2023-11-19T13:02:00;94809.84;;;10.90;100.00
68889;BME280;55930;47.412;8.790;2023-11-19T13:05:33;94799.22;;;10.90;100.00
68889;BME280;55930;47.412;8.790;2023-11-19T13:08:53;94805.44;;;10.87;100.00
68889;BME280;55930;47.412;8.790;2023-11-19T13:12:18;94806.75;;;10.91;100.00
68889;BME280;55930;47.412;8.790;2023-11-19T13:15:39;94796.59;;;11.04;100.00
68889;BME280;55930;47.412;8.790;2023-11-19T13:19:00;94791.56;;;10.92;100.00
68889;BME280;55930;47.412;8.790;2023-11-19T13:22:23;94793.03;;;10.93;100.00
68889;BME280;55930;47.412;8.790;2023-11-19T13:25:46;94799.78;;;10.94;100.00
68889;BME280;55930;47.412;8.790;2023-11-19T13:29:07;94799.78;;;10.94;100.00
68889;BME280;55930;47.412;8.790;2023-11-19T13:32:27;94796.66;;;10.95;100.00
68889;BME280;55930;47.412;8.790;2023-11-19T13:35:50;94797.53;;;11.01;100.00
68889;BME280;55930;47.412;8.790;2023-11-19T13:39:10;94789.75;;;11.12;100.00
68889;BME280;55930;47.412;8.790;2023-11-19T13:42:32;94784.16;;;11.10;100.00
68889;BME280;55930;47.412;8.790;2023-11-19T13:45:52;94784.16;;;11.10;100.00
68889;BME280;55930;47.412;8.790;2023-11-19T13:49:13;94783.91;;;11.08;100.00
68889;BME280;55930;47.412;8.790;2023-11-19T13:52:33;94790.56;;;11.19;100.00
68889;BME280;55930;47.412;8.790;2023-11-19T13:55:54;94779.94;;;11.19;100.00
68889;BME280;55930;47.412;8.790;2023-11-19T13:59:14;94781.34;;;11.14;100.00
68889;BME280;55930;47.412;8.790;2023-11-19T14:02:35;94781.63;;;11.31;100.00
68889;BME280;55930;47.412;8.790;2023-11-19T14:05:55;94778.59;;;11.38;100.00
68889;BME280;55930;47.412;8.790;2023-11-19T14:09:18;94779.59;;;11.26;100.00
68889;BME280;55930;47.412;8.790;2023-11-19T14:12:39;94782.53;;;11.28;100.00
68889;BME280;55930;47.412;8.790;2023-11-19T14:16:00;94786.19;;;11.30;100.00
68889;BME280;55930;47.412;8.790;2023-11-19T14:19:20;94780.97;;;11.36;100.00
68889;BME280;55930;47.412;8.790;2023-11-19T14:22:45;94774.19;;;11.35;100.00
68889;BME280;55930;47.412;8.790;2023-11-19T14:26:08;94769.81;;;11.32;100.00
68889;BME280;55930;47.412;8.790;2023-11-19T14:29:29;94767.63;;;11.30;100.00
68889;BME280;55930;47.412;8.790;2023-11-19T14:32:50;94776.59;;;11.33;100.00
68889;BME280;55930;47.412;8.790;2023-11-19T14:36:11;94772.84;;;11.39;100.00
68889;BME280;55930;47.412;8.790;2023-11-19T14:39:31;94776.59;;;11.33;100.00
68889;BME280;55930;47.412;8.790;2023-11-19T14:42:52;94770.56;;;11.32;100.00
68889;BME280;55930;47.412;8.790;2023-11-19T14:46:12;94777.22;;;11.28;100.00
68889;BME280;55930;47.412;8.790;2023-11-19T14:49:36;94764.88;;;11.25;100.00
68889;BME280;55930;47.412;8.790;2023-11-19T14:53:00;94764.31;;;11.35;100.00
68889;BME280;55930;47.412;8.790;2023-11-19T14:56:20;94753.16;;;11.31;100.00
68889;BME280;55930;47.412;8.790;2023-11-19T14:59:40;94759.94;;;11.32;100.00
68889;BME280;55930;47.412;8.790;2023-11-19T15:03:01;94759.38;;;11.28;100.00
68889;BME280;55930;47.412;8.790;2023-11-19T15:06:26;94780.59;;;11.28;100.00
68889;BME280;55930;47.412;8.790;2023-11-19T15:09:47;94779.72;;;11.31;100.00
68889;BME280;55930;47.412;8.790;2023-11-19T15:13:08;94777.78;;;11.32;100.00
68889;BME280;55930;47.412;8.790;2023-11-19T15:16:29;94778.16;;;11.25;100.00
68889;BME280;55930;47.412;8.790;2023-11-19T15:19:54;94775.50;;;11.25;100.00
68889;BME280;55930;47.412;8.790;2023-11-19T15:23:15;94776.22;;;11.25;100.00
68889;BME280;55930;47.412;8.790;2023-11-19T15:26:36;94777.41;;;11.24;100.00
68889;BME280;55930;47.412;8.790;2023-11-19T15:29:56;94779.50;;;11.20;100.00
68889;BME280;55930;47.412;8.790;2023-11-19T15:33:17;94773.91;;;11.18;100.00
68889;BME280;55930;47.412;8.790;2023-11-19T15:36:37;94771.72;;;11.17;100.00
68889;BME280;55930;47.412;8.790;2023-11-19T15:40:00;94772.00;;;11.19;100.00
68889;BME280;55930;47.412;8.790;2023-11-19T15:43:23;94762.81;;;11.05;100.00
68889;BME280;55930;47.412;8.790;2023-11-19T15:46:43;94757.97;;;11.03;100.00
68889;BME280;55930;47.412;8.790;2023-11-19T15:50:04;94754.13;;;11.04;100.00
68889;BME280;55930;47.412;8.790;2023-11-19T15:53:25;94764.38;;;10.97;100.00
68889;BME280;55930;47.412;8.790;2023-11-19T15:56:45;94771.69;;;11.02;100.00
68889;BME280;55930;47.412;8.790;2023-11-19T16:00:06;94771.44;;;11.00;100.00
68889;BME280;55930;47.412;8.790;2023-11-19T16:03:31;94763.00;;;11.01;100.00
68889;BME280;55930;47.412;8.790;2023-11-19T16:06:53;94761.34;;;11.04;100.00
68889;BME280;55930;47.412;8.790;2023-11-19T16:10:13;94762.81;;;11.05;100.00
68889;BME280;55930;47.412;8.790;2023-11-19T16:13:34;94749.47;;;10.99;100.00
68889;BME280;55930;47.412;8.790;2023-11-19T16:16:55;94752.56;;;10.98;100.00
68889;BME280;55930;47.412;8.790;2023-11-19T16:20:15;94752.28;;;10.96;100.00
68889;BME280;55930;47.412;8.790;2023-11-19T16:23:36;94752.72;;;10.94;100.00
68889;BME280;55930;47.412;8.790;2023-11-19T16:26:56;94759.69;;;10.92;100.00
68889;BME280;55930;47.412;8.790;2023-11-19T16:30:18;94767.91;;;10.94;100.00
68889;BME280;55930;47.412;8.790;2023-11-19T16:33:42;94773.41;;;10.90;100.00
68889;BME280;55930;47.412;8.790;2023-11-19T16:37:03;94769.97;;;10.99;100.00
68889;BME280;55930;47.412;8.790;2023-11-19T16:40:26;94779.84;;;10.98;100.00
68889;BME280;55930;47.412;8.790;2023-11-19T16:43:47;94780.56;;;10.99;100.00
68889;BME280;55930;47.412;8.790;2023-11-19T16:47:09;94773.22;;;10.94;100.00
68889;BME280;55930;47.412;8.790;2023-11-19T16:50:29;94789.16;;;10.94;100.00
68889;BME280;55930;47.412;8.790;2023-11-19T16:53:49;94788.72;;;10.95;100.00
68889;BME280;55930;47.412;8.790;2023-11-19T16:57:10;94784.03;;;10.90;100.00
68889;BME280;55930;47.412;8.790;2023-11-19T17:00:33;94791.72;;;10.88;100.00
68889;BME280;55930;47.412;8.790;2023-11-19T17:03:55;94787.88;;;10.89;100.00
68889;BME280;55930;47.412;8.790;2023-11-19T17:07:20;94762.81;;;10.90;100.00
68889;BME280;55930;47.412;8.790;2023-11-19T17:10:44;94771.94;;;10.89;100.00
68889;BME280;55930;47.412;8.790;2023-11-19T17:14:04;94771.22;;;10.89;100.00
68889;BME280;55930;47.412;8.790;2023-11-19T17:17:25;94776.25;;;10.87;100.00
68889;BME280;55930;47.412;8.790;2023-11-19T17:20:53;94780.56;;;10.84;100.00
68889;BME280;55930;47.412;8.790;2023-11-19T17:24:18;94797.03;;;10.88;100.00
68889;BME280;55930;47.412;8.790;2023-11-19T17:27:39;94798.94;;;10.88;100.00
68889;BME280;55930;47.412;8.790;2023-11-19T17:30:59;94792.44;;;10.89;100.00
68889;BME280;55930;47.412;8.790;2023-11-19T17:34:20;94810.75;;;10.87;100.00
68889;BME280;55930;47.412;8.790;2023-11-19T17:37:42;94795.34;;;10.76;100.00
68889;BME280;55930;47.412;8.790;2023-11-19T17:41:03;94803.03;;;10.74;100.00
68889;BME280;55930;47.412;8.790;2023-11-19T17:44:24;94800.88;;;10.63;100.00
68889;BME280;55930;47.412;8.790;2023-11-19T17:47:46;94796.75;;;10.62;100.00
68889;BME280;55930;47.412;8.790;2023-11-19T17:51:07;94797.00;;;10.50;100.00
68889;BME280;55930;47.412;8.790;2023-11-19T17:54:27;94800.72;;;10.43;100.00